Terminal Aerodrome Forecast
Issued by NWS

Home | Current Version | Previous Version | Text Only | Print | Product List | Glossary On
Versions: 1 2 3 4 5 6 7 8 9 10 11 12 13 14 15 16 17 18 19 20 21 22 23 24 25 26 27 28 29 30
000
FTUS43 KGLD 281720
TAFMCK
TAF
KMCK 281720Z 2818/2918 36007KT P6SM BKN150
     FM282100 03006KT P6SM VCSH BKN060
     FM290000 06007KT P6SM BKN050
     FM290800 06010KT 6SM -RA BKN030
     FM290900 06010KT 6SM -RA BKN010
     FM291200 05010KT 3SM RA BR OVC004=

USA.gov is the U.S. government's official web portal to all federal, state and local government web resources and services.